Time;durP1;ratioP1;P1;durP2;ratioP2;P2;SDS_P1;SDS_P2;PMS_P1;PMS_P2;Temp;Humidity;BMP_temperature;BMP_pressure;BME280_temperature;BME280_humidity;BME280_pressure;Samples;Min_cycle;Max_cycle;Signal;HPM_P1;HPM_P2
2023/06/14 00:00:19;;;;;;;8.23;4.10;;;15.90;1.00;;;;;;5014415;28;20182;-51
2023/06/14 00:02:45;;;;;;;8.23;4.40;;;16.00;1.00;;;;;;5014173;28;20224;-51
2023/06/14 00:05:12;;;;;;;6.20;4.70;;;16.00;1.00;;;;;;5014330;28;20783;-51
2023/06/14 00:07:43;;;;;;;16.43;11.60;;;16.00;1.00;;;;;;5014336;28;20261;-51
2023/06/14 00:10:10;;;;;;;6.10;4.57;;;16.10;1.00;;;;;;5013789;28;20453;-52
2023/06/14 00:12:36;;;;;;;6.80;4.40;;;16.10;1.00;;;;;;5013920;28;20436;-51
2023/06/14 00:15:02;;;;;;;7.27;3.87;;;16.10;1.00;;;;;;5014218;28;20408;-50
2023/06/14 00:17:31;;;;;;;6.23;3.77;;;16.10;1.00;;;;;;5014207;28;20209;-51
2023/06/14 00:19:57;;;;;;;6.90;3.87;;;16.00;1.00;;;;;;5014022;28;20206;-51
2023/06/14 00:22:28;;;;;;;5.90;4.50;;;16.00;1.00;;;;;;5013988;28;20469;-50
2023/06/14 00:24:54;;;;;;;6.60;4.20;;;16.00;1.00;;;;;;5013783;28;20896;-50
2023/06/14 00:27:20;;;;;;;5.60;3.70;;;16.10;1.00;;;;;;5013673;28;20828;-53
2023/06/14 00:29:45;;;;;;;6.13;3.93;;;16.10;1.00;;;;;;5013898;28;20418;-51
2023/06/14 00:32:11;;;;;;;4.90;3.83;;;16.00;1.00;;;;;;5013487;28;20181;-51
2023/06/14 00:34:36;;;;;;;5.17;3.93;;;15.90;1.00;;;;;;5013699;28;20652;-51
2023/06/14 00:37:02;;;;;;;6.73;4.00;;;15.90;1.00;;;;;;5014076;28;20178;-51
2023/06/14 00:39:28;;;;;;;5.37;3.50;;;15.90;1.00;;;;;;5012949;28;20188;-52
2023/06/14 00:41:53;;;;;;;12.57;5.27;;;15.80;1.00;;;;;;5013975;28;20220;-52
2023/06/14 00:44:19;;;;;;;6.73;3.70;;;15.70;1.00;;;;;;5013679;28;20682;-52
2023/06/14 00:46:47;;;;;;;5.93;3.97;;;15.80;1.00;;;;;;5013811;28;20252;-52
2023/06/14 00:49:17;;;;;;;10.77;3.30;;;15.70;1.00;;;;;;5013299;28;20216;-52
2023/06/14 00:51:43;;;;;;;5.50;3.60;;;15.70;1.00;;;;;;5013427;28;20440;-51
2023/06/14 00:54:10;;;;;;;7.87;3.70;;;15.70;1.00;;;;;;5013338;28;20424;-52
2023/06/14 00:56:39;;;;;;;11.13;4.33;;;15.60;1.00;;;;;;5013567;28;20410;-52
2023/06/14 00:59:05;;;;;;;3.80;3.40;;;15.50;1.00;;;;;;5013591;28;20915;-52
2023/06/14 01:01:34;;;;;;;9.60;3.83;;;15.50;1.00;;;;;;5013156;28;20471;-51
2023/06/14 01:04:01;;;;;;;5.83;3.53;;;15.40;1.00;;;;;;5013347;28;20796;-51
2023/06/14 01:06:47;;;;;;;4.47;3.57;;;15.40;1.00;;;;;;5013554;28;20513;-53
2023/06/14 01:09:35;;;;;;;4.97;3.70;;;15.30;1.00;;;;;;5013834;28;20413;-52
2023/06/14 01:12:29;;;;;;;7.57;4.10;;;15.40;1.00;;;;;;5013163;28;20908;-51
2023/06/14 01:14:56;;;;;;;5.00;3.80;;;15.50;1.00;;;;;;5013551;28;20409;-52
2023/06/14 01:17:23;;;;;;;4.60;3.70;;;15.50;1.00;;;;;;5013635;28;20464;-53
2023/06/14 01:19:57;;;;;;;5.60;3.33;;;15.50;1.00;;;;;;5013607;28;20420;-51
2023/06/14 01:22:25;;;;;;;4.40;3.37;;;15.60;1.00;;;;;;5013544;28;20917;-51
2023/06/14 01:24:54;;;;;;;5.47;3.73;;;15.60;1.00;;;;;;5013452;28;20438;-50
2023/06/14 01:27:28;;;;;;;5.20;3.43;;;15.60;1.00;;;;;;5013119;28;20412;-51
2023/06/14 01:29:56;;;;;;;4.97;3.50;;;15.50;1.00;;;;;;5013669;28;20514;-52
2023/06/14 01:32:24;;;;;;;5.40;3.80;;;15.30;1.00;;;;;;5013262;28;20432;-53
2023/06/14 01:34:50;;;;;;;4.30;3.60;;;15.20;1.00;;;;;;5012933;28;20411;-51
2023/06/14 01:37:16;;;;;;;8.73;3.87;;;15.30;1.00;;;;;;5012779;28;20519;-52
2023/06/14 01:39:44;;;;;;;5.27;4.00;;;15.50;1.00;;;;;;5013463;28;20449;-51
2023/06/14 01:42:10;;;;;;;4.83;3.43;;;15.60;1.00;;;;;;5012818;28;20477;-51
2023/06/14 01:44:37;;;;;;;5.20;3.60;;;15.70;1.00;;;;;;5012910;28;20867;-52
2023/06/14 01:47:03;;;;;;;6.50;4.10;;;15.70;1.00;;;;;;5012837;28;20482;-52
2023/06/14 01:49:28;;;;;;;3.77;3.40;;;15.70;1.00;;;;;;5013798;28;20449;-53
2023/06/14 01:51:54;;;;;;;4.43;3.47;;;15.50;1.00;;;;;;5016485;28;20504;-52
2023/06/14 01:54:21;;;;;;;6.27;3.50;;;15.60;1.00;;;;;;5016991;28;20223;-52
2023/06/14 01:56:47;;;;;;;5.97;4.10;;;15.60;1.00;;;;;;5016608;28;20189;-52
2023/06/14 01:59:12;;;;;;;5.33;3.60;;;15.70;1.00;;;;;;5016261;28;20752;-51
2023/06/14 02:01:38;;;;;;;4.80;3.30;;;15.60;1.00;;;;;;5016403;28;20225;-51
2023/06/14 02:04:04;;;;;;;5.53;3.83;;;15.60;1.00;;;;;;5016320;28;20185;-51
2023/06/14 02:06:30;;;;;;;6.67;3.20;;;15.80;1.00;;;;;;5016554;28;20188;-52
2023/06/14 02:08:55;;;;;;;5.00;3.67;;;15.80;1.00;;;;;;5016573;28;20507;-52
2023/06/14 02:11:21;;;;;;;4.00;3.60;;;15.90;1.00;;;;;;5015822;28;20286;-54
2023/06/14 02:13:46;;;;;;;4.77;3.67;;;16.00;1.00;;;;;;5015886;28;20186;-53
2023/06/14 02:16:12;;;;;;;4.07;3.67;;;16.00;1.00;;;;;;5015776;28;20183;-53
2023/06/14 02:18:38;;;;;;;5.43;3.50;;;16.00;1.00;;;;;;5016418;28;20317;-52
2023/06/14 02:21:03;;;;;;;6.30;3.20;;;15.80;1.00;;;;;;5015780;28;20185;-51
2023/06/14 02:23:29;;;;;;;6.90;3.33;;;15.80;1.00;;;;;;5015732;28;20245;-53
2023/06/14 02:25:55;;;;;;;6.77;3.70;;;15.80;1.00;;;;;;5016058;28;20180;-53
2023/06/14 02:28:20;;;;;;;4.73;3.60;;;15.80;1.00;;;;;;5016182;28;20181;-51
2023/06/14 02:30:46;;;;;;;4.20;3.50;;;15.90;1.00;;;;;;5015653;28;20425;-52
2023/06/14 02:33:12;;;;;;;5.37;3.30;;;15.90;1.00;;;;;;5015865;28;20261;-52
2023/06/14 02:35:38;;;;;;;6.73;4.10;;;16.00;1.00;;;;;;5016081;28;20201;-54
2023/06/14 02:38:04;;;;;;;6.07;3.43;;;16.10;1.00;;;;;;5015789;28;20424;-53
2023/06/14 02:40:29;;;;;;;7.37;3.53;;;16.00;1.00;;;;;;5015752;28;20232;-52
2023/06/14 02:42:55;;;;;;;6.03;3.77;;;16.00;1.00;;;;;;5015579;28;20249;-52
2023/06/14 02:45:20;;;;;;;4.80;3.70;;;16.00;1.00;;;;;;5015957;28;20179;-51
2023/06/14 02:47:46;;;;;;;7.30;3.97;;;15.90;1.00;;;;;;5015781;28;20179;-52
2023/06/14 02:50:12;;;;;;;4.93;3.20;;;15.90;1.00;;;;;;5015605;28;20514;-51
2023/06/14 02:52:37;;;;;;;5.90;3.67;;;15.90;1.00;;;;;;5015272;28;20240;-51
2023/06/14 02:55:04;;;;;;;5.37;3.47;;;16.00;1.00;;;;;;5015680;28;20543;-52
2023/06/14 02:57:30;;;;;;;7.33;3.53;;;16.00;1.00;;;;;;5015429;28;20232;-54
2023/06/14 02:59:55;;;;;;;4.03;3.63;;;16.00;1.00;;;;;;5015295;28;20826;-53
2023/06/14 03:02:21;;;;;;;4.73;3.40;;;15.90;1.00;;;;;;5014294;28;20212;-52
2023/06/14 03:04:47;;;;;;;3.73;3.40;;;15.90;1.00;;;;;;5015237;28;20189;-52
2023/06/14 03:07:13;;;;;;;5.90;3.20;;;15.90;1.00;;;;;;5015409;28;20216;-54
2023/06/14 03:09:39;;;;;;;5.97;3.60;;;15.90;1.00;;;;;;5015561;28;20576;-54
2023/06/14 03:12:09;;;;;;;6.50;3.70;;;15.90;1.00;;;;;;5015488;28;20429;-52
2023/06/14 03:14:35;;;;;;;4.50;3.47;;;16.00;1.00;;;;;;5015201;28;20415;-53
2023/06/14 03:17:02;;;;;;;8.93;3.63;;;16.00;1.00;;;;;;5014972;28;20802;-51
2023/06/14 03:19:27;;;;;;;3.90;3.30;;;16.00;1.00;;;;;;5014643;28;20638;-51
2023/06/14 03:21:56;;;;;;;4.60;3.40;;;15.90;1.00;;;;;;5014860;28;20468;-52
2023/06/14 03:24:23;;;;;;;6.37;3.50;;;15.90;1.00;;;;;;5015119;28;20240;-53
2023/06/14 03:26:48;;;;;;;4.23;3.43;;;15.80;1.00;;;;;;5015165;28;20407;-54
2023/06/14 03:29:14;;;;;;;4.33;3.63;;;15.60;1.00;;;;;;5014950;28;20426;-51
2023/06/14 03:32:00;;;;;;;3.83;3.30;;;15.50;1.00;;;;;;5014760;28;20264;-53
2023/06/14 03:34:26;;;;;;;5.67;3.50;;;15.50;1.00;;;;;;5014691;28;20193;-53
2023/06/14 03:36:51;;;;;;;7.40;3.90;;;15.60;1.00;;;;;;5014561;28;20916;-52
2023/06/14 03:39:17;;;;;;;7.50;3.93;;;15.60;1.00;;;;;;5014792;28;20470;-51
2023/06/14 03:41:42;;;;;;;8.37;4.00;;;15.60;1.00;;;;;;5014788;28;20213;-51
2023/06/14 03:44:08;;;;;;;4.53;3.53;;;15.60;1.00;;;;;;5014668;28;20262;-51
2023/06/14 03:46:34;;;;;;;5.00;3.90;;;15.40;1.00;;;;;;5014705;28;20511;-54
2023/06/14 03:49:00;;;;;;;5.67;3.70;;;15.40;1.00;;;;;;5014087;28;20193;-51
2023/06/14 03:51:26;;;;;;;4.20;3.67;;;15.30;1.00;;;;;;5014661;28;20196;-52
2023/06/14 03:53:51;;;;;;;10.77;4.57;;;15.30;1.00;;;;;;5014408;28;20479;-50
2023/06/14 03:56:17;;;;;;;5.73;4.27;;;15.30;1.00;;;;;;5014553;28;20411;-53
2023/06/14 03:58:42;;;;;;;5.40;3.90;;;15.30;1.00;;;;;;5014291;28;20196;-54
2023/06/14 04:01:08;;;;;;;5.67;3.67;;;15.40;1.00;;;;;;5014366;28;20547;-53
2023/06/14 04:03:34;;;;;;;4.93;3.87;;;15.40;1.00;;;;;;5014335;28;20193;-52
2023/06/14 04:06:00;;;;;;;8.60;4.03;;;15.50;1.00;;;;;;5014383;28;20808;-53
2023/06/14 04:08:26;;;;;;;7.67;4.20;;;15.50;1.00;;;;;;5014240;28;20181;-52
2023/06/14 04:10:51;;;;;;;7.63;3.97;;;15.50;1.00;;;;;;5014087;28;20530;-51
2023/06/14 04:13:17;;;;;;;6.90;4.50;;;15.50;1.00;;;;;;5014059;28;20271;-52
2023/06/14 04:15:43;;;;;;;6.50;3.70;;;15.40;1.00;;;;;;5014064;28;20180;-52
2023/06/14 04:18:09;;;;;;;6.60;4.00;;;15.40;1.00;;;;;;5013989;28;20198;-52
2023/06/14 04:20:35;;;;;;;8.50;4.37;;;15.50;1.00;;;;;;5014211;28;20498;-52
2023/06/14 04:23:17;;;;;;;15.23;3.83;;;15.60;1.00;;;;;;5013838;28;20546;-51
2023/06/14 04:25:45;;;;;;;5.80;4.47;;;15.70;1.00;;;;;;5013942;28;20182;-53
2023/06/14 04:28:12;;;;;;;6.10;3.80;;;15.80;1.00;;;;;;5013756;28;20765;-52
2023/06/14 04:30:38;;;;;;;7.60;4.63;;;15.90;1.00;;;;;;5013860;28;20452;-52
2023/06/14 04:33:05;;;;;;;7.27;4.70;;;15.80;1.00;;;;;;5013813;28;21008;-52
2023/06/14 04:35:32;;;;;;;7.80;3.87;;;15.90;1.00;;;;;;5014151;28;20416;-53
2023/06/14 04:37:59;;;;;;;9.07;4.90;;;15.90;1.00;;;;;;5013812;28;20443;-50
2023/06/14 04:40:24;;;;;;;9.43;4.10;;;15.90;1.00;;;;;;5013664;28;20428;-53
2023/06/14 04:42:50;;;;;;;7.00;4.10;;;15.90;1.00;;;;;;5013840;28;20550;-52
2023/06/14 04:45:16;;;;;;;7.50;4.50;;;16.10;1.00;;;;;;5014032;28;20189;-52
2023/06/14 04:47:43;;;;;;;4.80;3.53;;;16.20;1.00;;;;;;5013904;28;20471;-51
2023/06/14 04:50:10;;;;;;;5.90;4.43;;;16.30;1.00;;;;;;5014014;28;20187;-52
2023/06/14 04:52:37;;;;;;;8.57;4.53;;;16.40;1.00;;;;;;5013104;28;20568;-51
2023/06/14 04:55:03;;;;;;;8.53;4.17;;;16.50;1.00;;;;;;5013861;28;20419;-52
2023/06/14 04:57:29;;;;;;;11.60;4.73;;;16.60;1.00;;;;;;5013671;28;20421;-54
2023/06/14 04:59:55;;;;;;;7.23;4.17;;;16.70;1.00;;;;;;5013295;28;20418;-52
2023/06/14 05:02:24;;;;;;;7.13;4.43;;;16.80;1.00;;;;;;5013536;28;20556;-51
2023/06/14 05:04:50;;;;;;;7.73;4.50;;;16.90;1.00;;;;;;5013766;28;20186;-51
2023/06/14 05:07:16;;;;;;;7.00;4.13;;;17.00;1.00;;;;;;5013885;28;20446;-52
2023/06/14 05:09:42;;;;;;;6.20;4.00;;;17.20;1.00;;;;;;5013552;28;20441;-52
2023/06/14 05:12:08;;;;;;;6.73;4.10;;;17.30;1.00;;;;;;5013637;28;20589;-52
2023/06/14 05:14:34;;;;;;;5.10;4.17;;;17.50;1.00;;;;;;5013686;28;20233;-51
2023/06/14 05:17:00;;;;;;;10.07;5.13;;;17.60;1.00;;;;;;5013449;28;20191;-52
2023/06/14 05:19:26;;;;;;;6.57;4.27;;;17.60;1.00;;;;;;5013565;28;20469;-52
2023/06/14 05:21:52;;;;;;;9.60;4.47;;;17.80;1.00;;;;;;5013417;28;20224;-50
2023/06/14 05:24:18;;;;;;;10.50;5.47;;;18.00;1.00;;;;;;5013831;28;20828;-51
2023/06/14 05:26:43;;;;;;;6.33;4.20;;;18.10;1.00;;;;;;5017014;28;20418;-52
2023/06/14 05:29:09;;;;;;;8.10;4.40;;;18.30;1.00;;;;;;5017224;28;20179;-51
2023/06/14 05:31:35;;;;;;;6.93;4.07;;;18.40;1.00;;;;;;5017001;28;20194;-51
2023/06/14 05:34:00;;;;;;;7.03;4.07;;;18.50;1.00;;;;;;5017047;28;20190;-51
2023/06/14 05:36:27;;;;;;;9.77;4.90;;;18.70;1.00;;;;;;5016855;28;20630;-50
2023/06/14 05:38:57;;;;;;;8.83;4.07;;;18.80;1.00;;;;;;5016817;28;20286;-51
2023/06/14 05:41:27;;;;;;;11.50;4.50;;;19.00;1.00;;;;;;5016419;28;20429;-51
2023/06/14 05:43:54;;;;;;;7.03;4.70;;;19.10;1.00;;;;;;5016882;28;20410;-51
2023/06/14 05:46:24;;;;;;;7.03;3.47;;;19.00;1.00;;;;;;5016923;28;20421;-51
2023/06/14 05:48:50;;;;;;;13.03;4.83;;;19.10;1.00;;;;;;5016725;28;20421;-50
2023/06/14 05:51:18;;;;;;;8.73;4.07;;;19.40;1.00;;;;;;5016425;28;20429;-50
2023/06/14 05:53:47;;;;;;;7.60;4.43;;;19.60;1.00;;;;;;5015852;28;20466;-51
2023/06/14 05:56:14;;;;;;;12.47;5.30;;;19.80;1.00;;;;;;5016443;28;20519;-51
2023/06/14 05:58:40;;;;;;;15.43;4.53;;;19.80;1.00;;;;;;5016096;28;20785;-51
2023/06/14 06:01:05;;;;;;;12.63;4.37;;;20.00;1.00;;;;;;5016274;28;20423;-51
2023/06/14 06:03:32;;;;;;;7.03;4.33;;;20.20;1.00;;;;;;5016242;28;20246;-51
2023/06/14 06:05:58;;;;;;;6.63;4.33;;;20.30;1.00;;;;;;5016012;28;20198;-51
2023/06/14 06:08:23;;;;;;;8.50;4.30;;;20.30;1.00;;;;;;5016059;28;20423;-51
2023/06/14 06:10:49;;;;;;;11.50;4.70;;;20.40;1.00;;;;;;5016311;28;20222;-51
2023/06/14 06:13:15;;;;;;;6.43;3.90;;;20.70;1.00;;;;;;5016111;28;20192;-51
2023/06/14 06:15:41;;;;;;;9.30;3.83;;;20.80;1.00;;;;;;5015769;28;20191;-51
2023/06/14 06:18:06;;;;;;;8.20;4.30;;;20.80;99.90;;;;;;5016081;28;20518;-50
2023/06/14 06:20:32;;;;;;;6.70;3.43;;;21.00;99.90;;;;;;5015510;28;20183;-51
2023/06/14 06:22:58;;;;;;;4.30;3.60;;;21.10;99.90;;;;;;5016189;28;20210;-51
2023/06/14 06:25:26;;;;;;;7.70;3.47;;;21.20;99.90;;;;;;5016259;28;20650;-50
2023/06/14 06:27:52;;;;;;;7.63;3.83;;;21.20;99.90;;;;;;5015806;28;20423;-50
2023/06/14 06:30:19;;;;;;;10.60;4.10;;;21.30;99.90;;;;;;5015947;28;20418;-50
2023/06/14 06:32:45;;;;;;;6.67;4.00;;;21.50;99.90;;;;;;5015867;28;20423;-51
2023/06/14 06:35:12;;;;;;;7.90;3.80;;;21.60;99.90;;;;;;5015571;28;20437;-50
2023/06/14 06:37:38;;;;;;;5.53;3.70;;;21.80;99.90;;;;;;5015126;28;20450;-51
2023/06/14 06:40:05;;;;;;;6.10;4.20;;;21.90;99.90;;;;;;5015235;28;20422;-50
2023/06/14 06:42:32;;;;;;;5.70;3.50;;;22.00;99.90;;;;;;5015991;28;20951;-50
2023/06/14 06:44:57;;;;;;;5.03;3.27;;;22.00;99.90;;;;;;5015620;28;20460;-51
2023/06/14 06:47:23;;;;;;;10.50;4.70;;;22.10;99.90;;;;;;5015898;28;20439;-49
2023/06/14 06:49:49;;;;;;;8.50;4.10;;;22.20;99.90;;;;;;5015492;28;20639;-48
2023/06/14 06:52:15;;;;;;;6.00;4.10;;;22.40;99.90;;;;;;5015382;28;20258;-48
2023/06/14 06:54:40;;;;;;;6.03;3.40;;;22.50;99.90;;;;;;5015408;28;20231;-49
2023/06/14 06:57:06;;;;;;;8.80;3.73;;;22.80;99.90;;;;;;5015279;28;20415;-49
2023/06/14 06:59:32;;;;;;;3.67;3.30;;;23.00;99.90;;;;;;5015716;28;20511;-49
2023/06/14 07:01:58;;;;;;;4.80;3.10;;;23.10;99.90;;;;;;5015323;28;20215;-49
2023/06/14 07:04:24;;;;;;;4.27;3.30;;;23.20;99.90;;;;;;5015067;28;20417;-49
2023/06/14 07:06:50;;;;;;;7.60;3.20;;;23.20;99.90;;;;;;5015156;28;20185;-49
2023/06/14 07:09:16;;;;;;;4.87;3.03;;;23.10;99.90;;;;;;5015048;28;20282;-49
2023/06/14 07:11:43;;;;;;;4.97;3.20;;;23.20;99.90;;;;;;5014620;28;20636;-49
2023/06/14 07:14:09;;;;;;;5.80;3.33;;;23.30;99.90;;;;;;5015020;28;20450;-48
2023/06/14 07:16:35;;;;;;;3.50;3.20;;;23.50;99.90;;;;;;5015031;28;20508;-49
2023/06/14 07:19:02;;;;;;;3.60;3.03;;;23.60;99.90;;;;;;5014747;28;20181;-49
2023/06/14 07:21:27;;;;;;;5.27;3.17;;;23.60;99.90;;;;;;5014829;28;20178;-49
2023/06/14 07:23:53;;;;;;;5.27;3.03;;;23.80;99.90;;;;;;5014845;28;20928;-50
2023/06/14 07:26:19;;;;;;;8.07;2.67;;;24.00;99.90;;;;;;5015068;28;20308;-49
2023/06/14 07:28:46;;;;;;;9.70;3.37;;;24.30;99.90;;;;;;5014821;28;20425;-50
2023/06/14 07:31:12;;;;;;;5.20;3.00;;;24.60;99.90;;;;;;5014362;28;20769;-50
2023/06/14 07:33:38;;;;;;;3.50;3.20;;;24.80;99.90;;;;;;5014791;28;20429;-50
2023/06/14 07:36:04;;;;;;;3.90;3.40;;;24.90;99.90;;;;;;5014446;28;20184;-47
2023/06/14 07:38:29;;;;;;;5.90;2.90;;;25.00;99.90;;;;;;5014489;28;20632;-48
2023/06/14 07:40:55;;;;;;;5.57;3.00;;;25.10;99.90;;;;;;5014312;28;20528;-48
2023/06/14 07:43:20;;;;;;;6.50;3.70;;;25.10;99.90;;;;;;5014257;28;20218;-48
2023/06/14 07:45:46;;;;;;;5.53;3.47;;;25.40;99.90;;;;;;5014226;28;20504;-47
2023/06/14 07:48:12;;;;;;;6.20;2.97;;;25.50;99.90;;;;;;5013965;28;20192;-49
2023/06/14 07:50:37;;;;;;;4.37;3.33;;;25.50;99.90;;;;;;5014532;28;20179;-48
2023/06/14 07:53:03;;;;;;;5.37;3.13;;;25.60;99.90;;;;;;5014203;28;20229;-47
2023/06/14 07:55:28;;;;;;;5.20;3.20;;;25.70;99.90;;;;;;5014425;28;20294;-48
2023/06/14 07:57:54;;;;;;;8.63;3.40;;;25.90;99.90;;;;;;5013638;28;20514;-48
2023/06/14 08:00:20;;;;;;;6.15;3.00;;;26.10;99.90;;;;;;5013628;28;20411;-48
2023/06/14 08:02:46;;;;;;;6.90;3.27;;;25.80;99.90;;;;;;5014118;28;20207;-48
2023/06/14 08:05:12;;;;;;;5.10;3.13;;;25.90;99.90;;;;;;5014264;28;20176;-48
2023/06/14 08:07:38;;;;;;;5.07;3.07;;;26.10;99.90;;;;;;5013950;28;20933;-48
2023/06/14 08:10:06;;;;;;;7.13;2.90;;;26.30;99.90;;;;;;5014174;28;20415;-48
2023/06/14 08:12:32;;;;;;;3.00;2.80;;;26.50;99.90;;;;;;5013843;28;20427;-48
2023/06/14 08:14:59;;;;;;;16.60;10.43;;;26.30;99.90;;;;;;5013569;28;20828;-48
2023/06/14 08:17:25;;;;;;;4.67;3.50;;;26.50;99.90;;;;;;5013484;28;20883;-48
2023/06/14 08:19:50;;;;;;;10.60;7.73;;;26.80;99.90;;;;;;5013543;28;20431;-48
2023/06/14 08:22:17;;;;;;;3.50;2.87;;;27.20;99.90;;;;;;5013233;28;20227;-48
2023/06/14 08:24:44;;;;;;;6.43;3.20;;;27.10;99.90;;;;;;5013740;28;20210;-49
2023/06/14 08:27:10;;;;;;;4.20;3.47;;;27.10;99.90;;;;;;5013801;28;20430;-48
2023/06/14 08:29:35;;;;;;;3.87;2.93;;;27.20;99.90;;;;;;5013116;28;20788;-48
2023/06/14 08:32:01;;;;;;;5.97;2.97;;;27.30;99.90;;;;;;5013349;28;20418;-48
2023/06/14 08:34:27;;;;;;;7.73;3.53;;;27.60;99.90;;;;;;5013028;28;20624;-49
2023/06/14 08:36:53;;;;;;;5.30;3.00;;;27.70;99.90;;;;;;5013438;28;20446;-48
2023/06/14 08:39:18;;;;;;;11.23;3.27;;;27.90;99.90;;;;;;5013568;28;20184;-49
2023/06/14 08:41:50;;;;;;;4.40;2.80;;;27.70;99.90;;;;;;5013406;28;20223;-48
2023/06/14 08:44:16;;;;;;;3.47;3.17;;;27.90;99.90;;;;;;5013467;28;20245;-48
2023/06/14 08:46:43;;;;;;;7.20;3.33;;;27.90;99.90;;;;;;5013263;28;20460;-48
2023/06/14 08:49:11;;;;;;;2.83;2.53;;;28.20;99.90;;;;;;5013164;28;20510;-48
2023/06/14 08:51:37;;;;;;;5.30;3.70;;;28.50;99.90;;;;;;5012890;28;20526;-48
2023/06/14 08:54:04;;;;;;;7.33;3.47;;;28.60;99.90;;;;;;5012681;28;20520;-48
2023/06/14 08:56:31;;;;;;;7.77;2.93;;;28.90;99.90;;;;;;5012837;28;20427;-48
2023/06/14 08:59:06;;;;;;;3.97;3.13;;;28.60;99.90;;;;;;5012883;28;20420;-48
2023/06/14 09:01:36;;;;;;;14.77;3.87;;;28.60;99.90;;;;;;5016785;28;20414;-48
2023/06/14 09:04:02;;;;;;;8.63;3.23;;;28.60;99.90;;;;;;5016658;28;20864;-47
2023/06/14 09:06:28;;;;;;;4.73;3.23;;;28.90;99.90;;;;;;5017143;28;20411;-46
2023/06/14 09:08:58;;;;;;;8.50;3.70;;;28.70;99.90;;;;;;5017073;28;20415;-48
2023/06/14 09:11:26;;;;;;;4.83;3.20;;;27.60;99.90;;;;;;5016716;28;20530;-48
2023/06/14 09:13:52;;;;;;;4.23;3.10;;;27.70;99.90;;;;;;5016945;28;20417;-48
2023/06/14 09:16:17;;;;;;;7.10;3.60;;;28.20;99.90;;;;;;5016786;28;20753;-48
2023/06/14 09:18:47;;;;;;;7.70;4.57;;;28.50;99.90;;;;;;5016605;28;20173;-48
2023/06/14 09:21:14;;;;;;;8.60;3.73;;;28.50;99.90;;;;;;5017076;28;20184;-48
2023/06/14 09:23:41;;;;;;;3.30;3.00;;;28.90;99.90;;;;;;5016652;28;20470;-48
2023/06/14 09:26:19;;;;;;;6.53;3.60;;;29.20;99.90;;;;;;5016719;28;20418;-48
2023/06/14 09:28:46;;;;;;;7.20;3.83;;;29.60;99.90;;;;;;5016586;28;20805;-48
2023/06/14 09:31:13;;;;;;;3.90;3.30;;;29.80;99.90;;;;;;5016796;28;20815;-48
2023/06/14 09:33:47;;;;;;;4.40;3.53;;;29.70;99.90;;;;;;5016367;28;20441;-48
2023/06/14 09:36:16;;;;;;;10.73;3.37;;;29.80;99.90;;;;;;5016281;28;20407;-48
2023/06/14 09:38:51;;;;;;;8.97;3.57;;;30.00;99.90;;;;;;5016652;28;20415;-49
2023/06/14 09:41:16;;;;;;;6.37;3.50;;;30.00;99.90;;;;;;5016785;28;20516;-48
2023/06/14 09:43:43;;;;;;;8.33;3.67;;;30.20;99.90;;;;;;5015719;28;20554;-47
2023/06/14 09:46:09;;;;;;;7.63;3.37;;;30.20;99.90;;;;;;5015516;28;20176;-48
2023/06/14 09:48:34;;;;;;;9.70;4.03;;;30.40;99.90;;;;;;5016513;28;20467;-48
2023/06/14 09:51:01;;;;;;;9.90;3.53;;;30.30;99.90;;;;;;5016247;28;20411;-48
2023/06/14 09:53:30;;;;;;;6.03;3.67;;;30.00;99.90;;;;;;5015170;28;20315;-48
2023/06/14 09:55:57;;;;;;;4.67;3.30;;;30.10;99.90;;;;;;5014823;28;20514;-47
2023/06/14 09:58:26;;;;;;;13.87;3.60;;;29.30;99.90;;;;;;5014885;28;20413;-47
2023/06/14 10:00:52;;;;;;;5.73;3.90;;;28.90;99.90;;;;;;5014841;28;20423;-47
2023/06/14 10:03:25;;;;;;;7.80;3.73;;;28.40;99.90;;;;;;5015107;28;20455;-49
2023/06/14 10:05:51;;;;;;;8.10;4.03;;;27.60;99.90;;;;;;5015088;28;20433;-46
2023/06/14 10:08:19;;;;;;;7.13;3.57;;;26.90;99.90;;;;;;5014670;28;20776;-46
2023/06/14 10:10:46;;;;;;;7.07;3.27;;;27.40;99.90;;;;;;5014030;28;20625;-46
2023/06/14 10:13:13;;;;;;;10.03;3.33;;;28.00;99.90;;;;;;5014823;28;20485;-46
2023/06/14 10:16:03;;;;;;;11.33;3.90;;;28.50;99.90;;;;;;5014531;28;20435;-48
2023/06/14 10:19:05;;;;;;;5.63;3.70;;;28.10;99.90;;;;;;5014595;28;20494;-46
2023/06/14 10:21:42;;;;;;;5.00;3.20;;;27.70;99.90;;;;;;5014612;28;20525;-46
2023/06/14 10:24:10;;;;;;;5.27;3.97;;;27.40;99.90;;;;;;5015134;28;20399;-46
2023/06/14 10:26:57;;;;;;;14.87;4.10;;;28.00;99.90;;;;;;5014193;28;20419;-47
2023/06/14 10:29:23;;;;;;;7.10;3.40;;;29.00;99.90;;;;;;5014633;28;20436;-46
2023/06/14 10:31:50;;;;;;;5.60;4.10;;;29.20;99.90;;;;;;5014402;28;20506;-46
2023/06/14 10:34:26;;;;;;;9.07;4.20;;;28.90;99.90;;;;;;5014257;28;20704;-47
2023/06/14 10:37:07;;;;;;;7.73;3.60;;;29.00;99.90;;;;;;5014220;28;20486;-47
2023/06/14 10:39:44;;;;;;;4.10;3.47;;;29.60;99.90;;;;;;5014611;28;20430;-47
2023/06/14 10:42:10;;;;;;;6.17;4.10;;;29.90;99.90;;;;;;5014183;28;20605;-47
2023/06/14 10:44:43;;;;;;;7.90;3.57;;;30.40;99.90;;;;;;5013948;28;20427;-47
2023/06/14 10:47:30;;;;;;;10.83;3.60;;;30.70;99.90;;;;;;5014073;28;20927;-47
2023/06/14 10:50:02;;;;;;;7.70;4.07;;;31.20;99.90;;;;;;5014233;28;20934;-47
2023/06/14 10:52:29;;;;;;;9.10;3.83;;;30.80;99.90;;;;;;4976523;28;1094270;-47
2023/06/14 10:55:09;;;;;;;5.53;3.90;;;29.40;99.90;;;;;;5014607;28;20410;-47
2023/06/14 10:57:45;;;;;;;5.33;3.70;;;27.90;99.90;;;;;;5014913;28;20407;-47
2023/06/14 11:00:15;;;;;;;4.93;3.80;;;27.40;99.90;;;;;;5014738;28;20407;-47
2023/06/14 11:03:30;;;;;;;5.57;4.03;;;27.40;99.90;;;;;;5014750;28;20455;-47
2023/06/14 11:05:58;;;;;;;4.90;4.03;;;27.70;99.90;;;;;;5014594;28;20498;-47
2023/06/14 11:08:29;;;;;;;6.13;3.57;;;28.40;99.90;;;;;;5014775;28;20445;-46
2023/06/14 11:11:00;;;;;;;9.30;3.63;;;27.80;99.90;;;;;;5014606;28;20419;-47
2023/06/14 11:13:26;;;;;;;8.63;3.80;;;27.00;99.90;;;;;;5014858;28;20414;-46
2023/06/14 11:15:57;;;;;;;6.70;3.60;;;26.90;99.90;;;;;;5014699;28;20469;-47
2023/06/14 11:18:24;;;;;;;5.47;3.90;;;27.00;99.90;;;;;;5014985;28;20740;-47
2023/06/14 11:20:50;;;;;;;8.15;3.67;;;27.40;99.90;;;;;;5014047;28;20867;-47
2023/06/14 11:23:16;;;;;;;4.13;3.73;;;28.20;99.90;;;;;;5013815;28;20212;-46
2023/06/14 11:25:41;;;;;;;6.53;5.03;;;29.00;99.90;;;;;;5014063;28;20770;-47
2023/06/14 11:28:07;;;;;;;22.87;18.10;;;30.10;99.90;;;;;;5014539;28;20176;-47
2023/06/14 11:30:33;;;;;;;6.97;3.67;;;31.10;99.90;;;;;;5014044;28;20184;-47
2023/06/14 11:32:59;;;;;;;3.67;3.37;;;31.20;99.90;;;;;;5014723;28;20192;-49
2023/06/14 11:35:25;;;;;;;6.30;3.50;;;30.90;99.90;;;;;;5013047;28;20438;-47
2023/06/14 11:37:56;;;;;;;8.07;3.37;;;31.00;99.90;;;;;;5013917;28;20652;-47
2023/06/14 11:40:24;;;;;;;4.27;3.50;;;30.90;99.90;;;;;;5014336;28;20419;-48
2023/06/14 11:42:50;;;;;;;5.40;2.97;;;29.90;99.90;;;;;;5013937;28;20899;-47
2023/06/14 11:45:15;;;;;;;4.23;3.60;;;28.60;99.90;;;;;;5013958;28;20422;-48
2023/06/14 11:47:41;;;;;;;5.30;3.80;;;27.80;99.90;;;;;;5014208;28;20184;-46
2023/06/14 11:50:09;;;;;;;10.93;3.55;;;27.60;99.90;;;;;;5013638;28;20847;-47
2023/06/14 11:52:36;;;;;;;7.32;3.22;;;28.40;99.90;;;;;;5012851;28;20438;-48
2023/06/14 11:55:05;;;;;;;8.40;3.20;;;29.00;99.90;;;;;;5013827;28;20600;-48
2023/06/14 11:57:33;;;;;;;7.40;3.30;;;29.60;99.90;;;;;;5013990;28;20411;-48
2023/06/14 11:59:59;;;;;;;6.85;3.63;;;30.50;99.90;;;;;;5013992;28;20362;-47
2023/06/14 12:02:27;;;;;;;7.90;3.50;;;31.30;99.90;;;;;;5013493;28;20219;-47
2023/06/14 12:04:53;;;;;;;9.17;3.60;;;31.20;99.90;;;;;;5013575;28;20195;-46
2023/06/14 12:07:22;;;;;;;9.87;3.63;;;30.50;99.90;;;;;;5013978;28;20418;-46
2023/06/14 12:09:53;;;;;;;4.73;2.90;;;30.30;99.90;;;;;;5012966;28;20878;-48
2023/06/14 12:12:21;;;;;;;7.13;3.73;;;31.00;99.90;;;;;;5013679;28;20526;-48
2023/06/14 12:14:47;;;;;;;5.93;3.40;;;31.70;99.90;;;;;;5013686;28;20411;-48
2023/06/14 12:17:17;;;;;;;5.30;3.43;;;31.30;99.90;;;;;;5013993;28;20423;-48
2023/06/14 12:19:43;;;;;;;5.37;3.67;;;30.30;99.90;;;;;;5013931;28;20411;-48
2023/06/14 12:22:16;;;;;;;5.90;3.70;;;29.20;99.90;;;;;;5013815;28;20465;-47
2023/06/14 12:24:45;;;;;;;6.83;3.43;;;29.20;99.90;;;;;;5013624;28;20443;-47
2023/06/14 12:27:15;;;;;;;10.73;3.53;;;29.70;99.90;;;;;;5013830;28;20447;-47
2023/06/14 12:29:44;;;;;;;3.60;3.10;;;30.60;99.90;;;;;;5013459;28;20435;-48
2023/06/14 12:32:10;;;;;;;7.20;3.60;;;30.80;99.90;;;;;;5013443;28;20411;-48
2023/06/14 12:34:35;;;;;;;6.83;3.63;;;30.10;99.90;;;;;;5013238;28;20430;-47
2023/06/14 12:37:02;;;;;;;8.17;3.43;;;29.00;99.90;;;;;;5013119;28;20195;-47
2023/06/14 12:39:27;;;;;;;7.50;3.77;;;28.90;99.90;;;;;;5013442;28;20195;-46
2023/06/14 12:41:54;;;;;;;7.20;3.60;;;29.60;99.90;;;;;;5012991;28;20459;-46
2023/06/14 12:44:20;;;;;;;6.50;4.10;;;30.30;99.90;;;;;;5013319;28;20188;-47
2023/06/14 12:46:46;;;;;;;9.40;3.63;;;31.20;99.90;;;;;;5013132;28;20914;-47
2023/06/14 12:49:13;;;;;;;5.60;3.27;;;31.30;99.90;;;;;;5013188;28;20195;-47
2023/06/14 12:51:40;;;;;;;7.50;3.50;;;30.60;99.90;;;;;;5013422;28;20423;-47